Terminal Aerodrome Forecast
Issued by NWS

Home | Current Version | Previous Version | Text Only | Print | Product List | Glossary On
Versions: 1 2 3 4 5 6 7 8 9 10 11 12 13 14 15 16 17 18 19 20 21 22
000
FTUS43 KIND 191700
TAFLAF
TAF
KLAF 191730Z 1918/2018 09010KT P6SM -RA OVC080
     FM191830 14010KT 5SM -SHRA BR OVC020
     FM192100 06014KT 3SM -SHRA BR OVC006
     FM200200 25010KT 5SM BR VCSH OVC005
     FM200600 23010KT P6SM OVC010
     FM201400 28012G20KT 5SM -SHRA BR OVC015=

USA.gov is the U.S. government's official web portal to all federal, state and local government web resources and services.